Time;durP1;ratioP1;P1;durP2;ratioP2;P2;SDS_P1;SDS_P2;PMS_P1;PMS_P2;Temp;Humidity;BMP_temperature;BMP_pressure;BME280_temperature;BME280_humidity;BME280_pressure;Samples;Min_cycle;Max_cycle;Signal;HPM_P1;HPM_P2
2022/07/29 00:00:37;;;;;;;3.15;2.85;;;21.70;90.90;;;;;;5051578;28;20174;-65
2022/07/29 00:03:02;;;;;;;3.75;3.17;;;21.60;91.20;;;;;;5050732;28;20181;-66
2022/07/29 00:05:28;;;;;;;3.85;3.20;;;21.60;91.70;;;;;;5051644;28;20192;-65
2022/07/29 00:07:54;;;;;;;5.95;3.15;;;21.60;92.20;;;;;;5051910;28;20637;-66
2022/07/29 00:10:19;;;;;;;4.75;3.15;;;21.50;92.60;;;;;;5051718;28;20204;-66
2022/07/29 00:12:45;;;;;;;4.95;3.00;;;21.50;93.10;;;;;;5051392;28;20260;-66
2022/07/29 00:15:11;;;;;;;4.70;3.15;;;21.40;93.60;;;;;;5051449;28;20217;-65
2022/07/29 00:17:37;;;;;;;3.88;3.10;;;21.30;94.30;;;;;;5051836;28;20181;-66
2022/07/29 00:20:03;;;;;;;3.70;2.95;;;21.20;94.80;;;;;;5051345;28;20209;-66
2022/07/29 00:22:29;;;;;;;4.03;3.10;;;21.10;95.30;;;;;;5051170;28;20217;-66
2022/07/29 00:24:54;;;;;;;5.47;3.28;;;21.00;95.90;;;;;;5050275;28;20227;-66
2022/07/29 00:27:20;;;;;;;3.88;3.13;;;21.00;96.40;;;;;;5051242;28;20185;-66
2022/07/29 00:29:45;;;;;;;4.95;3.58;;;21.00;96.90;;;;;;5051590;28;20185;-66
2022/07/29 00:32:11;;;;;;;4.60;3.28;;;20.90;97.40;;;;;;5051298;28;20181;-66
2022/07/29 00:37:20;;;;;;;6.40;3.47;;;20.80;98.20;;;;;;5051244;28;20235;-66
2022/07/29 00:39:46;;;;;;;3.67;3.10;;;20.80;98.70;;;;;;5049977;28;20177;-66
2022/07/29 00:42:12;;;;;;;7.40;3.60;;;20.80;98.80;;;;;;5050938;28;20576;-66
2022/07/29 00:44:41;;;;;;;5.82;3.33;;;20.80;99.20;;;;;;5050432;28;20207;-66
2022/07/29 00:47:08;;;;;;;5.60;3.80;;;20.70;99.40;;;;;;5050932;28;21743;-66
2022/07/29 00:49:34;;;;;;;6.72;3.60;;;20.70;99.80;;;;;;5051073;28;20628;-66
2022/07/29 00:52:04;;;;;;;3.58;3.28;;;20.70;99.90;;;;;;5051215;28;20203;-66
2022/07/29 00:54:30;;;;;;;4.07;3.33;;;20.70;99.90;;;;;;5050632;28;20686;-66
2022/07/29 00:56:58;;;;;;;3.45;3.15;;;20.60;99.90;;;;;;5051076;28;20185;-66
2022/07/29 00:59:23;;;;;;;4.38;3.33;;;20.60;99.90;;;;;;5051024;28;20181;-66
2022/07/29 01:01:49;;;;;;;3.85;3.47;;;20.50;99.90;;;;;;5050641;28;20211;-66
2022/07/29 01:04:14;;;;;;;5.18;3.47;;;20.40;99.90;;;;;;5050870;28;20184;-66
2022/07/29 01:06:41;;;;;;;4.80;3.17;;;20.40;99.90;;;;;;5051118;28;20174;-66
2022/07/29 01:09:07;;;;;;;3.85;3.55;;;20.30;99.90;;;;;;5050797;28;20220;-66
2022/07/29 01:11:33;;;;;;;3.97;3.30;;;20.30;99.90;;;;;;5050916;28;20192;-66
2022/07/29 01:14:00;;;;;;;5.32;3.75;;;20.20;99.90;;;;;;5050618;28;20216;-66
2022/07/29 01:16:32;;;;;;;4.35;3.63;;;20.20;99.90;;;;;;5050316;28;20248;-66
2022/07/29 01:19:12;;;;;;;4.60;3.20;;;20.20;99.90;;;;;;5050697;28;20227;-66
2022/07/29 01:21:54;;;;;;;7.82;4.00;;;20.10;99.90;;;;;;5050716;28;20209;-66
2022/07/29 01:24:36;;;;;;;5.38;3.70;;;20.10;99.90;;;;;;5051112;28;20208;-66
2022/07/29 01:27:14;;;;;;;3.97;3.58;;;20.10;99.90;;;;;;5050200;28;20189;-66
2022/07/29 01:29:45;;;;;;;5.35;3.45;;;20.10;99.90;;;;;;5044043;28;20185;-66
2022/07/29 01:32:13;;;;;;;4.28;3.88;;;20.10;99.90;;;;;;5050693;28;20192;-66
2022/07/29 01:34:50;;;;;;;4.13;3.65;;;20.10;99.90;;;;;;5050695;28;20268;-66
2022/07/29 01:37:37;;;;;;;8.45;3.75;;;20.00;99.90;;;;;;5034144;28;20185;-66
2022/07/29 01:40:04;;;;;;;5.03;3.75;;;20.00;99.90;;;;;;5050296;28;20239;-66
2022/07/29 01:42:41;;;;;;;5.90;4.00;;;20.00;99.90;;;;;;5050213;28;20178;-66
2022/07/29 01:45:19;;;;;;;6.47;4.00;;;19.90;99.90;;;;;;5050947;28;20203;-65
2022/07/29 01:47:52;;;;;;;4.60;3.90;;;19.90;99.90;;;;;;5049612;28;20189;-65
2022/07/29 01:50:21;;;;;;;4.72;3.58;;;19.90;99.90;;;;;;5051512;28;20726;-66
2022/07/29 01:53:07;;;;;;;4.90;3.92;;;19.90;99.90;;;;;;5048347;28;20189;-65
2022/07/29 01:55:37;;;;;;;6.65;3.88;;;19.80;99.90;;;;;;5041687;28;20208;-66
2022/07/29 01:58:05;;;;;;;5.78;3.92;;;19.80;99.90;;;;;;5052923;28;20260;-66
2022/07/29 02:00:33;;;;;;;4.53;4.13;;;19.80;99.90;;;;;;5053749;28;20180;-66
2022/07/29 02:03:02;;;;;;;5.72;4.05;;;19.70;99.90;;;;;;5053238;28;20181;-65
2022/07/29 02:05:30;;;;;;;7.68;3.85;;;19.70;99.90;;;;;;5052912;28;20181;-66
2022/07/29 02:07:58;;;;;;;4.50;3.78;;;19.70;99.90;;;;;;5053911;28;20594;-66
2022/07/29 02:10:27;;;;;;;6.88;3.40;;;19.70;99.90;;;;;;5053891;28;20189;-66
2022/07/29 02:12:55;;;;;;;5.57;4.00;;;19.70;99.90;;;;;;5053197;28;20173;-66
2022/07/29 02:15:23;;;;;;;4.65;3.95;;;19.70;99.90;;;;;;5053687;28;20299;-66
2022/07/29 02:17:54;;;;;;;3.95;3.55;;;19.70;99.90;;;;;;5054161;28;20185;-66
2022/07/29 02:20:22;;;;;;;5.35;3.70;;;19.70;99.90;;;;;;5052516;28;20615;-66
2022/07/29 02:22:50;;;;;;;5.43;3.70;;;19.70;99.90;;;;;;5053659;28;20268;-66
2022/07/29 02:25:17;;;;;;;4.63;4.03;;;19.70;99.90;;;;;;5053826;28;20216;-66
2022/07/29 02:27:45;;;;;;;4.97;3.63;;;19.70;99.90;;;;;;5053448;28;20185;-66
2022/07/29 02:30:12;;;;;;;7.25;4.13;;;19.70;99.90;;;;;;5053540;28;20209;-66
2022/07/29 02:32:41;;;;;;;5.03;3.80;;;19.70;99.90;;;;;;5052148;28;20185;-66
2022/07/29 02:35:08;;;;;;;3.70;3.35;;;19.70;99.90;;;;;;5052457;28;20201;-66
2022/07/29 02:37:36;;;;;;;6.40;4.22;;;19.70;99.90;;;;;;5053450;28;20279;-66
2022/07/29 02:40:02;;;;;;;8.45;3.97;;;19.60;99.90;;;;;;5053313;28;20185;-66
2022/07/29 02:42:28;;;;;;;4.40;4.00;;;19.60;99.90;;;;;;5052881;28;20275;-66
2022/07/29 02:44:55;;;;;;;4.85;4.00;;;19.60;99.90;;;;;;5053170;28;20683;-65
2022/07/29 02:47:48;;;;;;;4.57;3.95;;;19.60;99.90;;;;;;5053006;28;20212;-65
2022/07/29 02:50:27;;;;;;;8.15;4.45;;;19.60;99.90;;;;;;5052957;28;20533;-66
2022/07/29 02:53:11;;;;;;;4.05;3.65;;;19.50;99.90;;;;;;5053064;28;20177;-66
2022/07/29 02:55:44;;;;;;;5.82;3.78;;;19.50;99.90;;;;;;5053248;28;20221;-66
2022/07/29 02:58:28;;;;;;;6.50;4.05;;;19.40;99.90;;;;;;5052645;28;20335;-66
2022/07/29 03:00:56;;;;;;;5.38;4.40;;;19.40;99.90;;;;;;5047917;28;20276;-66
2022/07/29 03:03:25;;;;;;;5.85;4.10;;;19.40;99.90;;;;;;5052862;28;20892;-66
2022/07/29 03:05:54;;;;;;;6.18;3.88;;;19.40;99.90;;;;;;5051669;28;20181;-66
2022/07/29 03:08:21;;;;;;;5.90;4.13;;;19.30;99.90;;;;;;5052758;28;20193;-65
2022/07/29 03:10:47;;;;;;;4.53;3.70;;;19.30;99.90;;;;;;5053321;28;20204;-65
2022/07/29 03:13:15;;;;;;;7.80;4.13;;;19.40;99.90;;;;;;5048980;28;20186;-65
2022/07/29 03:15:44;;;;;;;6.03;3.92;;;19.30;99.90;;;;;;5052663;28;20197;-66
2022/07/29 03:18:10;;;;;;;5.47;4.10;;;19.30;99.90;;;;;;5052625;28;20208;-66
2022/07/29 03:20:37;;;;;;;4.68;3.63;;;19.30;99.90;;;;;;5052995;28;20213;-66
2022/07/29 03:23:03;;;;;;;6.70;4.00;;;19.30;99.90;;;;;;5052086;28;20217;-66
2022/07/29 03:25:28;;;;;;;5.82;4.00;;;19.30;99.90;;;;;;5052534;28;20515;-66
2022/07/29 03:27:54;;;;;;;6.15;4.53;;;19.20;99.90;;;;;;5052662;28;20264;-66
2022/07/29 03:30:19;;;;;;;4.82;3.90;;;19.20;99.90;;;;;;5052181;28;20256;-66
2022/07/29 03:32:45;;;;;;;5.18;3.97;;;19.20;99.90;;;;;;5052023;28;20667;-66
2022/07/29 03:35:10;;;;;;;7.35;4.60;;;19.20;99.90;;;;;;5052076;28;20208;-66
2022/07/29 03:37:36;;;;;;;7.20;4.60;;;19.10;99.90;;;;;;5052535;28;20173;-66
2022/07/29 03:40:07;;;;;;;5.00;4.30;;;19.10;99.90;;;;;;5050897;28;20205;-66
2022/07/29 03:42:35;;;;;;;4.72;4.00;;;19.20;99.90;;;;;;5052311;28;20184;-66
2022/07/29 03:45:06;;;;;;;4.70;4.30;;;19.20;99.90;;;;;;5050924;28;20217;-66
2022/07/29 03:47:34;;;;;;;4.78;3.70;;;19.20;99.90;;;;;;5052170;28;20636;-66
2022/07/29 03:50:05;;;;;;;4.70;4.03;;;19.20;99.90;;;;;;5051876;28;20196;-66
2022/07/29 03:52:31;;;;;;;4.10;3.78;;;19.20;99.90;;;;;;5052227;28;20671;-66
2022/07/29 03:54:57;;;;;;;4.30;3.90;;;19.20;99.90;;;;;;5051828;28;20354;-66
2022/07/29 03:57:27;;;;;;;4.10;3.70;;;19.20;99.90;;;;;;5051794;28;20270;-66
2022/07/29 03:59:53;;;;;;;4.75;3.60;;;19.20;99.90;;;;;;5051137;28;20488;-66
2022/07/29 04:02:19;;;;;;;4.43;3.70;;;19.20;99.90;;;;;;5051993;28;20189;-66
2022/07/29 04:04:45;;;;;;;4.03;3.28;;;19.20;99.90;;;;;;5051526;28;20667;-66
2022/07/29 04:07:15;;;;;;;7.00;4.05;;;19.20;99.90;;;;;;5051470;28;20185;-66
2022/07/29 04:09:41;;;;;;;6.13;3.50;;;19.20;99.90;;;;;;5052085;28;20865;-66
2022/07/29 04:12:07;;;;;;;5.13;4.22;;;19.30;99.90;;;;;;5050996;28;20319;-66
2022/07/29 04:14:34;;;;;;;4.28;3.80;;;19.30;99.90;;;;;;5049564;28;20196;-66
2022/07/29 04:17:01;;;;;;;4.63;3.83;;;19.40;99.90;;;;;;5051466;28;20213;-66
2022/07/29 04:19:26;;;;;;;5.63;3.65;;;19.40;99.90;;;;;;5050143;28;20507;-66
2022/07/29 04:21:52;;;;;;;4.25;3.85;;;19.40;99.90;;;;;;5050561;28;20254;-66
2022/07/29 04:24:18;;;;;;;6.20;3.40;;;19.40;99.90;;;;;;5049806;28;20221;-66
2022/07/29 04:26:44;;;;;;;5.60;3.80;;;19.50;99.90;;;;;;5049502;28;20178;-66
2022/07/29 04:29:11;;;;;;;5.13;3.65;;;19.50;99.90;;;;;;5049870;28;20247;-67
2022/07/29 04:31:37;;;;;;;3.92;3.50;;;19.60;99.90;;;;;;5050851;28;20177;-66
2022/07/29 04:34:02;;;;;;;3.63;3.33;;;19.70;99.90;;;;;;5049641;28;20177;-67
2022/07/29 04:36:28;;;;;;;4.15;3.60;;;19.70;99.90;;;;;;5051353;28;20216;-67
2022/07/29 04:38:53;;;;;;;4.15;3.50;;;19.90;99.90;;;;;;5049009;28;20522;-64
2022/07/29 04:41:19;;;;;;;3.75;3.33;;;19.90;99.90;;;;;;5051077;28;20532;-67
2022/07/29 04:43:44;;;;;;;5.03;3.20;;;20.00;99.90;;;;;;5050382;28;20283;-66
2022/07/29 04:46:10;;;;;;;4.25;3.47;;;20.10;99.90;;;;;;5049513;28;20193;-68
2022/07/29 04:48:35;;;;;;;6.70;4.50;;;20.20;99.90;;;;;;5050884;28;20281;-67
2022/07/29 04:51:01;;;;;;;6.93;4.40;;;20.40;99.90;;;;;;5050932;28;20658;-64
2022/07/29 04:53:26;;;;;;;5.57;3.35;;;20.60;99.90;;;;;;5051482;28;20291;-65
2022/07/29 04:55:52;;;;;;;4.30;3.35;;;20.90;99.90;;;;;;5050608;28;20578;-64
2022/07/29 04:58:17;;;;;;;4.30;3.47;;;21.20;99.90;;;;;;5050945;28;20193;-65
2022/07/29 05:00:43;;;;;;;4.32;3.50;;;21.50;99.90;;;;;;5049846;28;20326;-65
2022/07/29 05:03:08;;;;;;;3.38;3.08;;;21.90;99.90;;;;;;5050858;28;20532;-66
2022/07/29 05:05:34;;;;;;;4.85;3.40;;;22.20;99.90;;;;;;5050737;28;20177;-65
2022/07/29 05:08:00;;;;;;;6.15;3.40;;;22.30;99.90;;;;;;5051410;28;20592;-64
2022/07/29 05:10:25;;;;;;;13.32;8.35;;;22.30;99.90;;;;;;5051105;28;20625;-65
2022/07/29 05:12:51;;;;;;;4.75;4.10;;;22.40;99.90;;;;;;5051344;28;20257;-65
2022/07/29 05:15:17;;;;;;;6.45;4.20;;;22.40;99.90;;;;;;5050528;28;20579;-65
2022/07/29 05:17:43;;;;;;;3.72;3.30;;;22.50;99.90;;;;;;5051434;28;20666;-65
2022/07/29 05:20:09;;;;;;;5.55;3.10;;;22.80;99.90;;;;;;5051365;28;20200;-65
2022/07/29 05:22:35;;;;;;;5.40;3.20;;;23.00;99.90;;;;;;5051251;28;20685;-65
2022/07/29 05:25:00;;;;;;;4.60;2.95;;;23.00;99.90;;;;;;5054845;28;20184;-65
2022/07/29 05:27:26;;;;;;;4.53;3.03;;;23.30;99.90;;;;;;5055187;28;20201;-65
2022/07/29 05:29:51;;;;;;;4.93;2.97;;;23.60;99.90;;;;;;5055251;28;20185;-65
2022/07/29 05:32:17;;;;;;;4.28;2.97;;;23.80;99.90;;;;;;5055293;28;20227;-65
2022/07/29 05:34:42;;;;;;;3.30;2.92;;;24.20;99.90;;;;;;5055293;28;20223;-65
2022/07/29 05:37:08;;;;;;;5.68;3.17;;;24.70;99.90;;;;;;5054973;28;20277;-65
2022/07/29 05:39:33;;;;;;;4.32;2.60;;;25.10;99.70;;;;;;5053360;28;20181;-65
2022/07/29 05:41:59;;;;;;;2.67;2.40;;;25.40;99.20;;;;;;5055124;28;20178;-64
2022/07/29 05:44:24;;;;;;;3.60;2.80;;;25.80;98.50;;;;;;5055311;28;20177;-65
2022/07/29 05:46:50;;;;;;;3.13;2.60;;;26.20;97.70;;;;;;5055131;28;20177;-66
2022/07/29 05:49:16;;;;;;;5.53;3.35;;;26.60;96.60;;;;;;5054775;28;20648;-65
2022/07/29 05:51:41;;;;;;;3.45;3.13;;;27.00;95.90;;;;;;5054833;28;20189;-66
2022/07/29 05:54:07;;;;;;;4.03;2.90;;;27.50;94.80;;;;;;5053702;28;20192;-65
2022/07/29 05:56:32;;;;;;;5.75;2.90;;;27.80;93.90;;;;;;5054580;28;20221;-66
2022/07/29 05:58:58;;;;;;;4.57;2.97;;;28.20;93.00;;;;;;5054963;28;20170;-65
2022/07/29 06:01:23;;;;;;;6.05;3.03;;;28.60;92.10;;;;;;5054695;28;20169;-66
2022/07/29 06:03:49;;;;;;;4.18;3.10;;;29.10;91.10;;;;;;5054643;28;20181;-66
2022/07/29 06:06:15;;;;;;;4.40;3.03;;;29.50;89.90;;;;;;5054621;28;20276;-66
2022/07/29 06:08:40;;;;;;;3.45;2.70;;;29.90;87.80;;;;;;5054512;28;20178;-66
2022/07/29 06:11:06;;;;;;;4.55;2.60;;;30.30;85.70;;;;;;5054748;28;20268;-66
2022/07/29 06:13:32;;;;;;;4.70;3.13;;;30.80;82.90;;;;;;5054592;28;20658;-66
2022/07/29 06:15:58;;;;;;;4.57;3.20;;;30.80;80.50;;;;;;5053240;28;20214;-66
2022/07/29 06:18:23;;;;;;;3.70;2.80;;;30.70;79.60;;;;;;5054432;28;20631;-65
2022/07/29 06:20:53;;;;;;;3.60;2.75;;;30.70;79.00;;;;;;5054542;28;20177;-66
2022/07/29 06:23:19;;;;;;;3.05;2.63;;;30.90;78.80;;;;;;5054309;28;20233;-66
2022/07/29 06:25:44;;;;;;;5.18;2.60;;;30.90;78.30;;;;;;5054549;28;20208;-66
2022/07/29 06:28:10;;;;;;;3.88;3.10;;;30.60;76.80;;;;;;5054354;28;20557;-65
2022/07/29 06:30:36;;;;;;;2.83;2.63;;;30.40;78.60;;;;;;5068590;28;20172;-65
2022/07/29 06:33:01;;;;;;;4.63;2.92;;;30.40;76.50;;;;;;5072866;28;20218;-65
2022/07/29 06:35:27;;;;;;;2.70;2.50;;;30.00;77.20;;;;;;5060140;28;20216;-65
2022/07/29 06:37:53;;;;;;;3.10;2.60;;;29.70;77.90;;;;;;5053972;28;20177;-65
2022/07/29 06:43:03;;;;;;;3.95;2.72;;;28.50;80.40;;;;;;5053987;28;20185;-65
2022/07/29 06:45:29;;;;;;;2.90;2.60;;;27.70;83.40;;;;;;5054140;28;20542;-65
2022/07/29 06:47:54;;;;;;;4.93;3.00;;;27.50;85.60;;;;;;5053583;28;20177;-65
2022/07/29 06:50:21;;;;;;;3.75;2.80;;;27.90;86.30;;;;;;5053700;28;20177;-65
2022/07/29 06:52:47;;;;;;;6.60;3.22;;;28.00;83.90;;;;;;5053740;28;20189;-65
2022/07/29 06:55:13;;;;;;;8.07;3.38;;;28.00;83.70;;;;;;5053398;28;20201;-65
2022/07/29 06:57:39;;;;;;;3.13;2.85;;;28.00;83.00;;;;;;5053836;28;20235;-65
2022/07/29 07:00:05;;;;;;;5.22;3.35;;;27.80;82.30;;;;;;5053436;28;20181;-65
2022/07/29 07:02:31;;;;;;;5.30;3.17;;;27.30;83.40;;;;;;5053773;28;20181;-65
2022/07/29 07:04:58;;;;;;;8.27;3.47;;;27.10;83.70;;;;;;5053517;28;20177;-65
2022/07/29 07:07:24;;;;;;;5.25;3.25;;;26.80;83.50;;;;;;5053691;28;20181;-66
2022/07/29 07:09:49;;;;;;;8.32;3.80;;;26.80;81.80;;;;;;5053394;28;20177;-63
2022/07/29 07:12:15;;;;;;;7.78;3.47;;;27.30;81.70;;;;;;5053553;28;20169;-63
2022/07/29 07:14:40;;;;;;;4.78;2.97;;;28.20;79.60;;;;;;5053374;28;20185;-63
2022/07/29 07:17:06;;;;;;;5.00;3.40;;;28.60;77.50;;;;;;5053284;28;20692;-63
2022/07/29 07:19:32;;;;;;;5.10;3.40;;;28.80;76.30;;;;;;5053259;28;20178;-63
2022/07/29 07:21:58;;;;;;;5.65;3.28;;;29.10;75.80;;;;;;5052006;28;20264;-64
2022/07/29 07:24:23;;;;;;;5.25;3.10;;;29.70;74.50;;;;;;5053092;28;20540;-64
2022/07/29 07:26:49;;;;;;;4.57;2.83;;;30.20;69.70;;;;;;5053354;28;20648;-63
2022/07/29 07:29:14;;;;;;;3.70;2.78;;;30.60;67.30;;;;;;5052795;28;20185;-63
2022/07/29 07:31:40;;;;;;;6.55;2.80;;;30.50;65.10;;;;;;5052921;28;20255;-63
2022/07/29 07:34:05;;;;;;;5.82;3.03;;;30.40;64.80;;;;;;5052870;28;20628;-63
2022/07/29 07:36:31;;;;;;;3.53;2.60;;;29.90;64.80;;;;;;5052820;28;20270;-59
2022/07/29 07:38:56;;;;;;;4.00;2.85;;;29.70;65.70;;;;;;5052692;28;20173;-62
2022/07/29 07:41:22;;;;;;;4.07;2.65;;;30.30;64.80;;;;;;5052873;28;20178;-62
2022/07/29 07:43:48;;;;;;;3.35;2.63;;;30.80;63.60;;;;;;5052763;28;20177;-61
2022/07/29 07:46:14;;;;;;;3.50;2.67;;;30.40;62.60;;;;;;5051996;28;20254;-64
2022/07/29 07:48:40;;;;;;;8.07;2.70;;;30.00;63.20;;;;;;5052746;28;20192;-64
2022/07/29 07:51:06;;;;;;;3.90;3.22;;;29.70;62.70;;;;;;5052553;28;20209;-64
2022/07/29 07:53:32;;;;;;;3.35;2.60;;;29.20;63.50;;;;;;5052601;28;20188;-64
2022/07/29 07:55:58;;;;;;;4.22;2.65;;;29.10;64.90;;;;;;5052349;28;20296;-64
2022/07/29 07:58:23;;;;;;;4.55;2.60;;;29.20;64.90;;;;;;5052698;28;20256;-63
2022/07/29 08:00:49;;;;;;;4.75;2.70;;;29.50;65.30;;;;;;5051875;28;20593;-64
2022/07/29 08:03:15;;;;;;;3.45;2.70;;;29.70;63.80;;;;;;5052293;28;20177;-64
2022/07/29 08:05:41;;;;;;;5.97;2.90;;;29.20;63.80;;;;;;5054530;28;20268;-63
2022/07/29 08:08:07;;;;;;;5.25;2.80;;;28.70;65.60;;;;;;5051649;28;20200;-63
2022/07/29 08:13:18;;;;;;;5.95;3.00;;;28.40;67.10;;;;;;5052556;28;21005;-64
2022/07/29 08:15:45;;;;;;;4.38;3.03;;;28.40;66.90;;;;;;5052065;28;20213;-64
2022/07/29 08:18:12;;;;;;;4.35;2.70;;;28.70;66.10;;;;;;5052228;28;20640;-64
2022/07/29 08:20:38;;;;;;;6.20;3.33;;;28.80;65.20;;;;;;5052040;28;20178;-65
2022/07/29 08:23:06;;;;;;;3.95;2.70;;;28.90;65.60;;;;;;5039666;28;20259;-65
2022/07/29 08:25:32;;;;;;;3.15;2.90;;;28.90;65.30;;;;;;5052282;28;20177;-65
2022/07/29 08:27:58;;;;;;;7.05;3.03;;;28.80;65.50;;;;;;5051788;28;20193;-65
2022/07/29 08:30:24;;;;;;;3.58;2.53;;;29.00;66.00;;;;;;5051682;28;20256;-65
2022/07/29 08:32:52;;;;;;;4.85;2.83;;;29.40;65.70;;;;;;5052123;28;20264;-64
2022/07/29 08:35:18;;;;;;;4.78;3.20;;;29.50;64.20;;;;;;5051814;28;20219;-63
2022/07/29 08:37:44;;;;;;;6.45;2.80;;;29.70;64.70;;;;;;5052159;28;20638;-64
2022/07/29 08:40:10;;;;;;;4.40;2.80;;;29.90;64.00;;;;;;5051937;28;20196;-64
2022/07/29 08:42:36;;;;;;;5.13;2.70;;;29.90;63.50;;;;;;5051500;28;20219;-63
2022/07/29 08:45:03;;;;;;;5.10;2.67;;;29.70;64.30;;;;;;5052029;28;20182;-64
2022/07/29 08:47:29;;;;;;;4.63;3.28;;;29.60;64.90;;;;;;5051992;28;20178;-63
2022/07/29 08:49:55;;;;;;;3.45;3.05;;;29.90;65.70;;;;;;5052188;28;20184;-64
2022/07/29 08:52:22;;;;;;;3.00;2.70;;;30.30;65.30;;;;;;5034517;28;20174;-64
2022/07/29 08:54:49;;;;;;;5.15;3.15;;;30.60;65.20;;;;;;5050424;28;20181;-64
2022/07/29 08:57:15;;;;;;;8.38;4.18;;;30.90;64.50;;;;;;5051961;28;20209;-64
2022/07/29 08:59:42;;;;;;;4.50;3.42;;;31.40;63.20;;;;;;5050117;28;20205;-64
2022/07/29 09:02:19;;;;;;;4.18;3.00;;;31.60;61.50;;;;;;5051821;28;20189;-64
2022/07/29 09:04:45;;;;;;;5.63;3.72;;;31.50;61.90;;;;;;5050800;28;20219;-64
2022/07/29 09:07:15;;;;;;;3.60;3.10;;;31.80;61.50;;;;;;5051790;28;20572;-64
2022/07/29 09:09:41;;;;;;;3.42;2.72;;;31.80;61.80;;;;;;5051240;28;20200;-64
2022/07/29 09:12:08;;;;;;;7.95;3.30;;;32.00;60.40;;;;;;5051669;28;20177;-64
2022/07/29 09:14:33;;;;;;;4.75;3.10;;;32.50;60.80;;;;;;5051388;28;20218;-64
2022/07/29 09:16:59;;;;;;;5.80;2.85;;;32.80;59.10;;;;;;5051673;28;20640;-64
2022/07/29 09:19:34;;;;;;;3.35;3.05;;;33.00;58.10;;;;;;5051404;28;20184;-64
2022/07/29 09:22:01;;;;;;;3.20;3.00;;;32.70;58.20;;;;;;5051157;28;20180;-64
2022/07/29 09:24:36;;;;;;;3.60;3.30;;;32.20;59.20;;;;;;5051283;28;20682;-64
2022/07/29 09:27:02;;;;;;;3.78;2.67;;;32.40;58.20;;;;;;5050037;28;20177;-64
2022/07/29 09:29:27;;;;;;;5.25;2.78;;;32.70;58.60;;;;;;5051646;28;20535;-64
2022/07/29 09:31:54;;;;;;;4.95;3.05;;;32.70;57.60;;;;;;5051380;28;20641;-64
2022/07/29 09:34:25;;;;;;;3.17;2.83;;;32.50;57.30;;;;;;5050117;28;20239;-64
2022/07/29 09:36:53;;;;;;;7.38;2.80;;;31.50;58.80;;;;;;5050884;28;20249;-64
2022/07/29 09:39:45;;;;;;;4.13;3.00;;;31.00;59.90;;;;;;5050888;28;20716;-64
2022/07/29 09:42:11;;;;;;;4.97;3.22;;;30.30;60.70;;;;;;5050923;28;20189;-64
2022/07/29 09:44:57;;;;;;;4.28;3.75;;;30.30;62.70;;;;;;5051382;28;20637;-64
2022/07/29 09:47:41;;;;;;;4.22;2.88;;;30.40;61.70;;;;;;5050932;28;20181;-64
2022/07/29 09:50:07;;;;;;;6.15;2.92;;;31.10;61.40;;;;;;5051381;28;20177;-64
2022/07/29 09:52:48;;;;;;;4.50;3.20;;;31.80;59.20;;;;;;5050898;28;20235;-64
2022/07/29 09:55:14;;;;;;;5.38;2.90;;;32.50;58.30;;;;;;5050664;28;20233;-64
2022/07/29 09:57:40;;;;;;;3.50;2.75;;;32.90;57.50;;;;;;5050917;28;20186;-64
2022/07/29 10:00:14;;;;;;;4.88;3.00;;;32.60;56.40;;;;;;5050495;28;20268;-64
2022/07/29 10:02:43;;;;;;;3.40;3.10;;;32.30;56.80;;;;;;5047041;28;20185;-64
2022/07/29 10:05:22;;;;;;;5.45;2.90;;;31.90;57.60;;;;;;5051180;28;20188;-64
2022/07/29 10:07:56;;;;;;;4.88;3.05;;;31.50;58.30;;;;;;5051283;28;20174;-63
2022/07/29 10:10:29;;;;;;;6.88;3.00;;;31.50;58.70;;;;;;5052842;28;20193;-63
2022/07/29 10:12:59;;;;;;;5.65;2.92;;;31.60;58.90;;;;;;5054244;28;20182;-64
2022/07/29 10:15:28;;;;;;;3.55;2.63;;;31.60;57.20;;;;;;5053434;28;20205;-63
2022/07/29 10:17:54;;;;;;;5.03;2.90;;;31.60;57.90;;;;;;5054478;28;20193;-63
2022/07/29 10:20:22;;;;;;;4.30;3.05;;;31.80;57.20;;;;;;5053747;28;20247;-63
2022/07/29 10:22:50;;;;;;;3.03;2.72;;;31.90;55.80;;;;;;5054290;28;20278;-64
2022/07/29 10:25:16;;;;;;;4.32;2.85;;;31.80;54.90;;;;;;5053240;28;20243;-63
2022/07/29 10:27:43;;;;;;;2.97;2.50;;;31.80;55.30;;;;;;5054476;28;20694;-65
2022/07/29 10:30:11;;;;;;;5.00;2.55;;;31.80;55.90;;;;;;5054271;28;20568;-65
2022/07/29 10:32:39;;;;;;;3.83;2.42;;;32.00;56.40;;;;;;5054226;28;20587;-63
2022/07/29 10:35:21;;;;;;;3.92;2.30;;;32.30;55.40;;;;;;5054259;28;20255;-63
2022/07/29 10:38:02;;;;;;;4.65;2.70;;;32.50;54.90;;;;;;5053740;28;20593;-65
2022/07/29 10:41:27;;;;;;;8.18;2.90;;;32.70;55.00;;;;;;5053138;28;20534;-65
2022/07/29 10:44:02;;;;;;;2.78;2.47;;;32.90;54.50;;;;;;5053904;28;20185;-65
2022/07/29 10:46:34;;;;;;;4.43;2.70;;;33.30;54.10;;;;;;5054226;28;20180;-64
2022/07/29 10:49:14;;;;;;;3.13;2.50;;;33.50;53.30;;;;;;5053744;28;20178;-63
2022/07/29 10:52:03;;;;;;;3.83;2.45;;;33.60;52.60;;;;;;5053582;28;20216;-63
2022/07/29 10:54:41;;;;;;;4.78;2.30;;;34.20;52.40;;;;;;5034296;28;20193;-64
2022/07/29 10:57:16;;;;;;;2.70;2.50;;;34.70;52.10;;;;;;5049154;28;20212;-64
2022/07/29 10:59:45;;;;;;;4.22;2.55;;;34.40;50.30;;;;;;5053470;28;20188;-64
2022/07/29 11:02:32;;;;;;;3.92;2.80;;;34.10;50.50;;;;;;5053772;28;20212;-64
2022/07/29 11:04:57;;;;;;;2.92;2.28;;;34.20;49.80;;;;;;5053372;28;20196;-64
2022/07/29 11:07:23;;;;;;;2.55;2.22;;;34.30;49.70;;;;;;5053836;28;20181;-64
2022/07/29 11:10:14;;;;;;;2.65;2.45;;;34.40;49.20;;;;;;5053617;28;20181;-64
2022/07/29 11:12:46;;;;;;;3.40;2.58;;;34.40;48.50;;;;;;5050593;28;20188;-64
2022/07/29 11:15:23;;;;;;;3.63;2.50;;;34.30;48.50;;;;;;5053256;28;20162;-64
2022/07/29 11:17:57;;;;;;;4.05;2.42;;;34.10;48.70;;;;;;5053495;28;20185;-64
2022/07/29 11:20:39;;;;;;;5.13;2.33;;;33.90;48.50;;;;;;5050270;28;20208;-64
2022/07/29 11:23:26;;;;;;;4.97;2.30;;;34.10;48.80;;;;;;5051121;28;20221;-64
2022/07/29 11:26:23;;;;;;;4.45;2.28;;;34.10;47.70;;;;;;5053244;28;20180;-64
2022/07/29 11:29:02;;;;;;;3.75;2.40;;;34.30;48.50;;;;;;5045592;28;20228;-63
2022/07/29 11:31:42;;;;;;;4.03;2.20;;;34.60;48.10;;;;;;5052371;28;20687;-63
2022/07/29 11:34:25;;;;;;;3.30;2.38;;;34.80;47.30;;;;;;5053060;28;20193;-64
2022/07/29 11:37:09;;;;;;;3.63;2.50;;;35.10;45.90;;;;;;5053202;28;20216;-63
2022/07/29 11:39:36;;;;;;;2.85;2.53;;;35.20;46.20;;;;;;5053224;28;20165;-64
2022/07/29 11:42:20;;;;;;;4.43;2.30;;;35.20;46.10;;;;;;5053253;28;20268;-63
2022/07/29 11:44:57;;;;;;;7.60;2.42;;;35.20;46.60;;;;;;5052919;28;20267;-64
2022/07/29 11:47:24;;;;;;;4.72;2.50;;;35.60;45.90;;;;;;5052769;28;20548;-63
2022/07/29 11:49:54;;;;;;;2.78;2.58;;;35.90;45.30;;;;;;5052948;28;20185;-64
2022/07/29 11:52:20;;;;;;;4.68;2.40;;;36.00;45.60;;;;;;5052647;28;20260;-63
2022/07/29 11:54:51;;;;;;;3.05;2.30;;;35.90;45.30;;;;;;5051620;28;20545;-63
2022/07/29 11:57:19;;;;;;;5.18;3.05;;;35.60;45.70;;;;;;5052844;28;20212;-63
2022/07/29 11:59:47;;;;;;;5.10;2.72;;;35.70;45.20;;;;;;5052782;28;20204;-64
2022/07/29 12:02:14;;;;;;;4.28;2.60;;;35.60;45.20;;;;;;5052737;28;20191;-64
2022/07/29 12:04:59;;;;;;;3.40;2.17;;;35.60;46.00;;;;;;5052608;28;20180;-64
2022/07/29 12:07:32;;;;;;;2.97;2.38;;;35.40;45.40;;;;;;5052732;28;20176;-64
2022/07/29 12:09:58;;;;;;;5.10;2.30;;;34.90;45.30;;;;;;5052604;28;20191;-64
2022/07/29 12:12:24;;;;;;;4.50;2.50;;;34.50;46.30;;;;;;5052733;28;20697;-64
2022/07/29 12:14:50;;;;;;;2.97;2.65;;;34.50;46.30;;;;;;5052668;28;20189;-64
2022/07/29 12:17:32;;;;;;;2.60;2.40;;;34.80;46.20;;;;;;5052408;28;20224;-64
2022/07/29 12:20:03;;;;;;;3.10;2.25;;;34.80;45.30;;;;;;5052393;28;20550;-64
2022/07/29 12:22:31;;;;;;;2.78;2.58;;;34.90;45.50;;;;;;5052426;28;20316;-64
2022/07/29 12:25:05;;;;;;;4.00;2.38;;;34.90;45.00;;;;;;5052411;28;20169;-64
2022/07/29 12:27:32;;;;;;;3.35;2.53;;;35.00;44.90;;;;;;5052271;28;20184;-64
2022/07/29 12:30:04;;;;;;;4.85;2.63;;;34.80;45.50;;;;;;5052201;28;20181;-64
2022/07/29 12:32:34;;;;;;;3.28;2.50;;;34.50;44.40;;;;;;5052065;28;20180;-64
2022/07/29 12:35:04;;;;;;;4.78;2.40;;;34.10;45.50;;;;;;5052187;28;20256;-63
2022/07/29 12:37:30;;;;;;;3.25;2.60;;;33.70;45.60;;;;;;5052345;28;20189;-63
2022/07/29 12:39:56;;;;;;;2.58;2.30;;;33.10;45.90;;;;;;5052261;28;20178;-63
2022/07/29 12:42:21;;;;;;;3.83;2.15;;;32.80;47.20;;;;;;5050769;28;20188;-63
2022/07/29 12:44:48;;;;;;;5.18;2.55;;;32.70;48.10;;;;;;5052154;28;20176;-63
2022/07/29 12:47:15;;;;;;;3.30;2.65;;;32.70;47.60;;;;;;5052131;28;20185;-63
2022/07/29 12:49:40;;;;;;;4.43;2.80;;;32.60;47.70;;;;;;5051803;28;20169;-63
2022/07/29 12:52:29;;;;;;;2.88;2.33;;;32.50;48.30;;;;;;5055075;28;20191;-63
2022/07/29 12:54:55;;;;;;;2.58;2.38;;;32.30;48.90;;;;;;5071899;28;20522;-63
2022/07/29 12:57:20;;;;;;;3.60;2.47;;;32.10;49.30;;;;;;5071746;28;20295;-63
2022/07/29 12:59:59;;;;;;;4.10;2.63;;;31.70;48.90;;;;;;5061152;28;20177;-63
2022/07/29 13:02:25;;;;;;;3.08;2.40;;;31.40;49.00;;;;;;5051876;28;20177;-63
2022/07/29 13:04:59;;;;;;;4.38;2.80;;;31.10;50.20;;;;;;5051843;28;20215;-64